Time;durP1;ratioP1;P1;durP2;ratioP2;P2;SDS_P1;SDS_P2;PMS_P1;PMS_P2;Temp;Humidity;BMP_temperature;BMP_pressure;BME280_temperature;BME280_humidity;BME280_pressure;Samples;Min_cycle;Max_cycle;Signal;HPM_P1;HPM_P2
2022/01/26 00:06:30;;;;;;;66.68;29.73;;;-6.30;99.90;;;;;;5054147;28;20074;-91
2022/01/26 00:08:57;;;;;;;87.28;37.70;;;-6.20;99.90;;;;;;5053181;28;20025;-90
2022/01/26 00:11:23;;;;;;;53.72;24.95;;;-6.30;99.90;;;;;;5054300;28;20032;-91
2022/01/26 00:13:50;;;;;;;48.05;21.80;;;-6.20;99.90;;;;;;5053454;28;20029;-91
2022/01/26 00:17:01;;;;;;;47.55;21.50;;;-6.10;99.90;;;;;;5052975;28;20029;-91
2022/01/26 00:19:03;;;;;;;53.72;23.05;;;-6.00;99.90;;;;;;5043357;28;20033;-91
2022/01/26 00:21:49;;;;;;;47.05;21.65;;;-5.90;99.90;;;;;;5052995;28;20039;-91
2022/01/26 00:29:34;;;;;;;42.88;19.65;;;-5.70;99.90;;;;;;5058129;28;20100;-91
2022/01/26 00:40:36;;;;;;;43.72;20.58;;;-5.70;99.90;;;;;;5058066;28;20436;-91
2022/01/26 00:43:15;;;;;;;43.28;20.13;;;-5.70;99.90;;;;;;5056508;28;20395;-91
2022/01/26 00:45:42;;;;;;;47.83;22.80;;;-5.60;99.90;;;;;;5056667;28;20025;-91
2022/01/26 00:48:09;;;;;;;45.85;22.48;;;-5.70;99.90;;;;;;5057710;28;20024;-91
2022/01/26 00:50:37;;;;;;;48.05;22.42;;;-5.70;99.90;;;;;;5076232;28;20476;-91
2022/01/26 00:53:04;;;;;;;48.55;22.02;;;-5.80;99.90;;;;;;5076190;28;20024;-91
2022/01/26 00:55:30;;;;;;;45.30;22.92;;;-5.90;99.90;;;;;;5076269;28;20028;-91
2022/01/26 00:57:56;;;;;;;53.15;27.23;;;-5.90;99.90;;;;;;5076312;28;20497;-91
2022/01/26 01:00:27;;;;;;;47.22;23.67;;;-5.90;99.90;;;;;;5076361;28;20021;-91
2022/01/26 01:02:55;;;;;;;52.95;26.00;;;-5.90;99.90;;;;;;5076157;28;20086;-91
2022/01/26 01:05:25;;;;;;;77.93;37.90;;;-5.80;99.90;;;;;;5076382;28;20509;-91
2022/01/26 01:07:58;;;;;;;56.33;27.33;;;-5.90;99.90;;;;;;5075796;28;20025;-91
2022/01/26 01:10:25;;;;;;;44.53;21.60;;;-5.90;99.90;;;;;;5076143;28;20462;-91
2022/01/26 01:12:55;;;;;;;40.30;20.05;;;-5.90;99.90;;;;;;5075853;28;20021;-91
2022/01/26 01:15:21;;;;;;;43.03;22.13;;;-5.80;99.90;;;;;;5075915;28;20025;-91
2022/01/26 01:17:52;;;;;;;40.80;20.27;;;-5.80;99.90;;;;;;5075911;28;20055;-90
2022/01/26 01:28:30;;;;;;;45.75;20.85;;;-5.80;99.90;;;;;;5076665;28;20031;-91
2022/01/26 01:31:02;;;;;;;44.97;20.70;;;-5.70;99.90;;;;;;5075859;28;20028;-91
2022/01/26 01:33:32;;;;;;;55.08;23.63;;;-5.70;99.90;;;;;;5075641;28;20112;-92
2022/01/26 01:36:00;;;;;;;42.90;20.50;;;-5.70;99.90;;;;;;5075305;28;20024;-90
2022/01/26 01:38:28;;;;;;;52.80;23.63;;;-5.60;99.90;;;;;;5076327;28;20052;-91
2022/01/26 01:40:55;;;;;;;53.28;23.17;;;-5.60;99.90;;;;;;5075548;28;20390;-91
2022/01/26 01:43:22;;;;;;;46.05;21.25;;;-5.50;99.90;;;;;;5075474;28;20051;-91
2022/01/26 01:45:51;;;;;;;45.65;21.85;;;-5.50;99.90;;;;;;5075688;28;20090;-90
2022/01/26 01:48:28;;;;;;;42.45;20.15;;;-5.60;99.90;;;;;;5074239;28;20021;-91
2022/01/26 01:50:56;;;;;;;45.15;20.90;;;-5.50;99.90;;;;;;5055491;28;20079;-91
2022/01/26 01:53:38;;;;;;;49.20;22.38;;;-5.50;99.90;;;;;;5055323;28;20054;-91
2022/01/26 01:56:05;;;;;;;47.30;22.38;;;-5.50;99.90;;;;;;5055452;28;20021;-90
2022/01/26 01:58:31;;;;;;;41.72;20.42;;;-5.50;99.90;;;;;;5055169;28;20052;-91
2022/01/26 02:00:57;;;;;;;46.08;22.95;;;-5.50;99.90;;;;;;5055067;28;20065;-91
2022/01/26 02:03:24;;;;;;;52.30;27.10;;;-5.50;99.90;;;;;;5055132;28;20617;-90
2022/01/26 02:05:49;;;;;;;50.10;24.50;;;-5.40;99.90;;;;;;5055063;28;20078;-91
2022/01/26 02:08:15;;;;;;;42.03;20.40;;;-5.40;99.90;;;;;;5054954;28;20115;-91
2022/01/26 02:10:42;;;;;;;46.22;22.52;;;-5.40;99.90;;;;;;5054833;28;20025;-91
2022/01/26 02:13:18;;;;;;;49.95;22.17;;;-5.30;99.90;;;;;;5055954;28;20352;-90
2022/01/26 02:15:55;;;;;;;49.63;23.02;;;-5.30;99.90;;;;;;5054881;28;20021;-91
2022/01/26 02:18:52;;;;;;;46.15;22.05;;;-5.30;99.90;;;;;;5055130;28;20025;-91
2022/01/26 03:01:45;;;;;;;51.55;24.48;;;-5.00;99.90;;;;;;5055192;28;20017;-91
2022/01/26 03:06:56;;;;;;;94.82;41.65;;;-5.10;99.90;;;;;;5054909;28;20060;-91
2022/01/26 03:09:27;;;;;;;92.35;43.30;;;-5.00;99.90;;;;;;5053868;28;20033;-91
2022/01/26 03:11:54;;;;;;;72.05;35.75;;;-5.20;99.90;;;;;;5053541;28;20068;-91
2022/01/26 03:17:54;;;;;;;50.42;22.95;;;-5.20;99.90;;;;;;5055366;28;20076;-91
2022/01/26 03:19:55;;;;;;;46.63;21.55;;;-5.20;99.90;;;;;;5050789;28;20029;-91
2022/01/26 03:33:36;;;;;;;44.17;21.90;;;-5.00;99.90;;;;;;5035426;28;20025;-91
2022/01/26 03:36:00;;;;;;;48.50;21.92;;;-4.90;99.90;;;;;;5054616;28;20010;-91
2022/01/26 03:38:39;;;;;;;44.75;21.00;;;-4.90;99.90;;;;;;5053616;28;20051;-91
2022/01/26 03:43:40;;;;;;;45.45;21.63;;;-4.90;99.90;;;;;;5054990;28;20035;-91
2022/01/26 03:46:05;;;;;;;48.72;23.92;;;-4.90;99.90;;;;;;5053403;28;20021;-91
2022/01/26 03:48:31;;;;;;;44.20;22.60;;;-5.00;99.90;;;;;;5053441;28;20021;-91
2022/01/26 03:50:57;;;;;;;46.30;22.38;;;-5.00;99.90;;;;;;5053663;28;20581;-91
2022/01/26 03:53:22;;;;;;;45.47;20.52;;;-5.00;99.90;;;;;;5053367;28;20028;-91
2022/01/26 03:55:48;;;;;;;48.53;24.00;;;-5.00;99.90;;;;;;5053198;28;20021;-91
2022/01/26 03:58:14;;;;;;;48.67;22.80;;;-5.00;99.90;;;;;;5053647;28;20505;-91
2022/01/26 04:00:40;;;;;;;53.22;24.48;;;-5.10;99.90;;;;;;5052972;28;20021;-91
2022/01/26 04:03:06;;;;;;;120.20;47.47;;;-5.00;99.90;;;;;;5053059;28;20517;-91
2022/01/26 04:05:31;;;;;;;107.13;44.75;;;-5.20;99.90;;;;;;5053275;28;20077;-91
2022/01/26 04:08:04;;;;;;;107.80;44.53;;;-5.10;99.90;;;;;;5053246;28;20063;-91
2022/01/26 04:10:46;;;;;;;63.30;29.98;;;-5.10;99.90;;;;;;5053137;28;20021;-91
2022/01/26 04:13:11;;;;;;;52.95;23.42;;;-5.00;99.90;;;;;;5053238;28;20463;-91
2022/01/26 04:15:38;;;;;;;52.30;24.45;;;-5.00;99.90;;;;;;5052999;28;20029;-91
2022/01/26 04:18:07;;;;;;;49.55;22.92;;;-5.00;99.90;;;;;;5053346;28;20422;-91
2022/01/26 04:20:38;;;;;;;50.55;24.17;;;-4.90;99.90;;;;;;5053030;28;20124;-91
2022/01/26 04:23:20;;;;;;;46.63;22.50;;;-4.80;99.90;;;;;;5053042;28;20029;-91
2022/01/26 04:25:48;;;;;;;50.40;23.63;;;-4.80;99.90;;;;;;5053188;28;20095;-91
2022/01/26 04:28:25;;;;;;;48.35;21.95;;;-4.70;99.90;;;;;;5052966;28;20114;-91
2022/01/26 04:30:50;;;;;;;45.00;22.90;;;-4.70;99.90;;;;;;5052879;28;20021;-91
2022/01/26 04:33:16;;;;;;;49.90;22.85;;;-4.70;99.90;;;;;;5052727;28;20033;-91
2022/01/26 04:35:43;;;;;;;50.50;24.13;;;-4.70;99.90;;;;;;5050587;28;20025;-91
2022/01/26 04:38:24;;;;;;;50.47;23.77;;;-4.60;99.90;;;;;;5050344;28;20016;-91
2022/01/26 04:43:30;;;;;;;57.75;26.80;;;-4.60;99.90;;;;;;5053438;28;20025;-91
2022/01/26 04:45:56;;;;;;;48.40;22.75;;;-4.60;99.90;;;;;;5052620;28;20067;-91
2022/01/26 04:48:25;;;;;;;55.83;23.48;;;-4.50;99.90;;;;;;5052218;28;20028;-91
2022/01/26 04:50:51;;;;;;;49.75;23.83;;;-4.50;99.90;;;;;;5052293;28;20021;-91
2022/01/26 04:53:17;;;;;;;51.08;25.80;;;-4.40;99.90;;;;;;5052256;28;20032;-91
2022/01/26 04:55:42;;;;;;;57.08;25.42;;;-4.40;99.90;;;;;;5052083;28;20036;-91
2022/01/26 04:58:08;;;;;;;59.88;24.75;;;-4.50;99.90;;;;;;5052193;28;20064;-91
2022/01/26 05:00:34;;;;;;;52.28;24.88;;;-4.50;99.90;;;;;;5052475;28;20024;-91
2022/01/26 05:03:00;;;;;;;63.78;27.38;;;-4.50;99.90;;;;;;5051760;28;20025;-91
2022/01/26 05:05:26;;;;;;;51.70;24.88;;;-4.50;99.90;;;;;;5052120;28;20033;-91
2022/01/26 05:07:52;;;;;;;52.42;25.92;;;-4.50;99.90;;;;;;5052027;28;20140;-91
2022/01/26 05:10:18;;;;;;;55.05;24.70;;;-4.50;99.90;;;;;;5052015;28;20017;-91
2022/01/26 05:12:44;;;;;;;55.92;26.77;;;-4.40;99.90;;;;;;5054943;28;20032;-90
2022/01/26 05:15:10;;;;;;;78.68;33.58;;;-4.30;99.90;;;;;;5056478;28;20033;-90
2022/01/26 05:17:38;;;;;;;64.72;29.95;;;-4.20;99.90;;;;;;5057212;28;20469;-91
2022/01/26 05:20:09;;;;;;;55.95;26.55;;;-4.20;99.90;;;;;;5055491;28;20017;-91
2022/01/26 15:35:39;;;;;;;79.72;31.83;;;-2.60;99.90;;;;;;4968025;28;20097;-90
2022/01/26 15:57:59;;;;;;;92.90;36.35;;;-2.30;99.90;;;;;;5051521;28;20099;-90
2022/01/26 16:21:44;;;;;;;101.85;42.17;;;-2.20;99.90;;;;;;5030684;28;20416;-90
2022/01/26 16:37:43;;;;;;;72.55;30.13;;;-2.10;99.90;;;;;;4935140;29;20087;-91
2022/01/26 16:53:44;;;;;;;55.67;24.98;;;-2.10;99.90;;;;;;5037592;28;20033;-95
2022/01/26 17:43:17;;;;;;;101.60;40.13;;;-2.10;99.90;;;;;;4996978;28;20651;-95
2022/01/26 18:04:20;;;;;;;106.18;43.05;;;-2.10;99.90;;;;;;4976980;28;20065;-96
2022/01/26 18:15:34;;;;;;;58.78;25.77;;;-2.30;99.90;;;;;;4953194;28;20419;-96
2022/01/26 18:49:39;;;;;;;44.67;20.17;;;-2.30;99.90;;;;;;5015400;28;20022;-96
2022/01/26 18:52:06;;;;;;;47.85;21.15;;;-2.20;99.90;;;;;;4997409;28;20042;-96
2022/01/26 18:54:34;;;;;;;41.55;18.90;;;-2.30;99.90;;;;;;4997364;28;20030;-95
2022/01/26 18:57:03;;;;;;;43.63;19.45;;;-2.30;99.90;;;;;;4997376;28;20399;-96
2022/01/26 18:59:29;;;;;;;48.08;20.98;;;-2.20;99.90;;;;;;4997558;28;20026;-96
2022/01/26 19:08:46;;;;;;;45.25;21.55;;;-2.30;99.90;;;;;;4979233;28;20100;-96
2022/01/26 19:11:12;;;;;;;51.80;21.13;;;-2.30;99.90;;;;;;4997193;28;20030;-96
2022/01/26 19:13:42;;;;;;;47.47;21.63;;;-2.30;99.90;;;;;;4997202;28;20033;-96
2022/01/26 19:16:19;;;;;;;46.67;20.45;;;-2.30;99.90;;;;;;4996962;28;20029;-96
2022/01/26 19:18:55;;;;;;;49.38;21.38;;;-2.30;99.90;;;;;;4998525;28;20034;-96
2022/01/26 19:21:46;;;;;;;43.75;20.42;;;-2.30;99.90;;;;;;4996916;28;20054;-96
2022/01/26 19:24:36;;;;;;;50.00;20.33;;;-2.30;99.90;;;;;;4997180;28;20396;-96
2022/01/26 19:27:13;;;;;;;54.67;24.63;;;-2.30;99.90;;;;;;4996929;28;20361;-96
2022/01/26 19:51:04;;;;;;;49.83;21.02;;;-2.40;99.90;;;;;;5014966;28;20091;-96
2022/01/26 19:53:30;;;;;;;63.20;29.40;;;-2.30;99.90;;;;;;4997486;28;20388;-96
2022/01/26 19:55:55;;;;;;;56.90;25.85;;;-2.30;99.90;;;;;;4996858;28;20022;-96
2022/01/26 19:58:21;;;;;;;60.22;25.10;;;-2.30;99.90;;;;;;4996758;28;20456;-96
2022/01/26 20:00:47;;;;;;;61.63;26.00;;;-2.30;99.90;;;;;;4997096;28;20032;-96
2022/01/26 20:03:16;;;;;;;53.72;22.80;;;-2.30;99.90;;;;;;4996614;28;20060;-96
2022/01/26 20:05:43;;;;;;;44.33;18.90;;;-2.30;99.90;;;;;;4999728;28;20036;-96
2022/01/26 20:08:26;;;;;;;44.00;19.30;;;-2.30;99.90;;;;;;4999059;28;20026;-96
2022/01/26 20:10:57;;;;;;;44.70;19.52;;;-2.30;99.90;;;;;;5000370;28;20030;-96
2022/01/26 20:13:29;;;;;;;;;;;-2.30;99.90;;;;;;5000777;28;20090;-96
2022/01/26 20:15:55;;;;;;;44.92;20.08;;;-2.30;99.90;;;;;;5000383;28;19944;-96
2022/01/26 20:18:21;;;;;;;40.22;17.92;;;-2.30;99.90;;;;;;5000252;28;20077;-96
2022/01/26 20:20:50;;;;;;;44.50;18.58;;;-2.30;99.90;;;;;;5000616;28;20046;-96
2022/01/26 20:23:17;;;;;;;48.22;21.25;;;-2.30;99.90;;;;;;5000229;28;20109;-96
2022/01/26 20:25:47;;;;;;;49.75;21.10;;;-2.30;99.90;;;;;;5000123;28;20018;-96
2022/01/26 20:28:14;;;;;;;48.70;20.75;;;-2.30;99.90;;;;;;5001710;28;20085;-96
2022/01/26 20:30:44;;;;;;;47.90;20.38;;;-2.20;99.90;;;;;;5000594;28;20487;-96
2022/01/26 20:33:10;;;;;;;37.80;17.70;;;-2.30;99.90;;;;;;5000063;28;20061;-96
2022/01/26 20:35:36;;;;;;;42.17;17.67;;;-2.30;99.90;;;;;;4999895;28;20029;-95
2022/01/26 20:38:03;;;;;;;46.35;18.55;;;-2.30;99.90;;;;;;5001598;28;20491;-96
2022/01/26 20:40:29;;;;;;;62.20;22.58;;;-2.20;99.90;;;;;;4999953;28;20030;-96
2022/01/26 20:42:55;;;;;;;46.15;20.17;;;-2.20;99.90;;;;;;5000268;28;20030;-96
2022/01/26 20:45:21;;;;;;;46.53;20.88;;;-2.20;99.90;;;;;;4999773;28;20036;-96
2022/01/26 20:47:50;;;;;;;46.28;20.60;;;-2.10;99.90;;;;;;5000627;28;20026;-96
2022/01/26 20:50:17;;;;;;;47.90;20.17;;;-2.10;99.90;;;;;;4999691;28;20056;-96
2022/01/26 20:52:43;;;;;;;43.92;19.85;;;-2.10;99.90;;;;;;4999764;28;20030;-96
2022/01/26 20:55:10;;;;;;;41.47;18.50;;;-2.00;99.90;;;;;;4999515;28;20026;-96
2022/01/26 20:57:37;;;;;;;43.47;19.35;;;-2.10;99.90;;;;;;4999427;28;20120;-96
2022/01/26 21:00:06;;;;;;;43.72;18.63;;;-2.00;99.90;;;;;;4999884;28;20030;-96
2022/01/26 21:02:32;;;;;;;42.08;18.55;;;-2.00;99.90;;;;;;4999693;28;20025;-96
2022/01/26 21:04:58;;;;;;;41.35;18.40;;;-2.00;99.90;;;;;;4999323;28;20018;-96
2022/01/26 21:07:23;;;;;;;52.40;21.85;;;-2.00;99.90;;;;;;4999444;28;20029;-96
2022/01/26 21:09:49;;;;;;;43.35;19.65;;;-2.00;99.90;;;;;;4999411;28;20034;-96
2022/01/26 21:12:16;;;;;;;45.85;20.95;;;-2.00;99.90;;;;;;4999237;28;20431;-96
2022/01/26 21:14:41;;;;;;;48.13;20.70;;;-2.00;99.90;;;;;;4999321;28;20052;-96
2022/01/26 21:17:08;;;;;;;43.38;19.52;;;-2.00;99.90;;;;;;4999241;28;20464;-96
2022/01/26 21:19:34;;;;;;;43.10;19.08;;;-2.00;99.90;;;;;;4999705;28;20030;-95
2022/01/26 21:22:01;;;;;;;38.92;17.30;;;-1.90;99.90;;;;;;4999247;28;20053;-96
2022/01/26 21:24:27;;;;;;;43.55;18.48;;;-1.90;99.90;;;;;;4998860;28;20483;-96
2022/01/26 21:26:53;;;;;;;43.92;19.02;;;-2.00;99.90;;;;;;4999082;28;20094;-96
2022/01/26 21:29:19;;;;;;;44.20;20.35;;;-2.00;99.90;;;;;;4999048;28;20061;-96
2022/01/26 21:31:45;;;;;;;45.50;20.90;;;-2.00;99.90;;;;;;4998984;28;20022;-96
2022/01/26 21:34:10;;;;;;;54.88;23.92;;;-2.00;99.90;;;;;;4999195;28;20034;-96
2022/01/26 21:36:36;;;;;;;55.20;22.38;;;-2.00;99.90;;;;;;4999350;28;20077;-96
2022/01/26 21:39:07;;;;;;;56.15;24.55;;;-2.00;99.90;;;;;;4998796;28;20057;-96
2022/01/26 21:41:34;;;;;;;54.28;22.52;;;-2.00;99.90;;;;;;4998680;28;20033;-96
2022/01/26 21:43:59;;;;;;;44.85;20.23;;;-2.00;99.90;;;;;;5002597;28;20032;-96
2022/01/26 21:46:25;;;;;;;44.83;19.42;;;-2.00;99.90;;;;;;5003302;28;20069;-92
2022/01/26 21:48:52;;;;;;;53.38;22.45;;;-2.00;99.90;;;;;;4998679;28;20033;-96
2022/01/26 21:51:18;;;;;;;43.65;19.85;;;-2.00;99.90;;;;;;4998610;28;20044;-95
2022/01/26 21:53:44;;;;;;;46.70;20.75;;;-2.00;99.90;;;;;;4998590;28;20036;-96
2022/01/26 21:56:11;;;;;;;41.97;18.17;;;-2.00;99.90;;;;;;4998721;28;20029;-96
2022/01/26 21:58:37;;;;;;;46.05;21.48;;;-2.00;99.90;;;;;;4998383;28;20025;-96
2022/01/26 22:01:03;;;;;;;41.30;20.00;;;-2.10;99.90;;;;;;4998544;28;20037;-96
2022/01/26 22:03:29;;;;;;;40.20;18.75;;;-2.10;99.90;;;;;;4998533;28;20105;-96
2022/01/26 22:05:57;;;;;;;46.00;20.27;;;-2.10;99.90;;;;;;4998244;28;20113;-96
2022/01/26 22:08:23;;;;;;;48.05;20.67;;;-2.10;99.90;;;;;;4998190;28;20022;-96
2022/01/26 22:10:50;;;;;;;51.95;24.08;;;-2.10;99.90;;;;;;4999368;28;20028;-96
2022/01/26 22:13:16;;;;;;;50.00;22.70;;;-2.10;99.90;;;;;;4998112;28;20361;-96
2022/01/26 22:15:43;;;;;;;47.63;20.85;;;-2.10;99.90;;;;;;4998074;28;20057;-96
2022/01/26 22:18:09;;;;;;;48.05;21.70;;;-2.00;99.90;;;;;;4998820;28;20033;-96
2022/01/26 22:20:36;;;;;;;50.10;21.40;;;-2.00;99.90;;;;;;4997856;28;20065;-96
2022/01/26 22:23:06;;;;;;;49.67;21.95;;;-2.00;99.90;;;;;;4998029;28;20022;-96
2022/01/26 22:25:32;;;;;;;;;;;-2.00;99.90;;;;;;4998579;28;20049;-96
2022/01/26 22:27:59;;;;;;;58.63;24.60;;;-2.00;99.90;;;;;;4997846;28;19936;-96
2022/01/26 22:30:30;;;;;;;53.83;25.15;;;-2.00;99.90;;;;;;4997458;28;20030;-96
2022/01/26 22:32:57;;;;;;;51.53;24.20;;;-2.00;99.90;;;;;;4997773;28;20029;-96
2022/01/26 22:35:24;;;;;;;53.42;24.13;;;-2.00;99.90;;;;;;4997878;28;20033;-96
2022/01/26 22:37:55;;;;;;;55.40;24.25;;;-2.00;99.90;;;;;;4997904;28;20029;-96
2022/01/26 22:40:27;;;;;;;47.17;21.52;;;-2.00;99.90;;;;;;4997843;28;20026;-96
2022/01/26 22:43:00;;;;;;;56.40;23.73;;;-2.00;99.90;;;;;;4999092;28;20030;-96
2022/01/26 22:45:37;;;;;;;56.28;23.50;;;-2.00;99.90;;;;;;4997689;28;20022;-96
2022/01/26 22:48:11;;;;;;;50.10;23.08;;;-2.00;99.90;;;;;;4998619;28;20022;-96
2022/01/26 22:50:38;;;;;;;49.80;21.30;;;-2.10;99.90;;;;;;4997616;28;20042;-96
2022/01/26 22:53:05;;;;;;;42.75;19.95;;;-2.10;99.90;;;;;;4997385;28;20030;-96
2022/01/26 22:55:32;;;;;;;54.35;21.60;;;-2.10;99.90;;;;;;4997737;28;20045;-96
2022/01/26 22:57:57;;;;;;;51.00;22.35;;;-2.10;99.90;;;;;;4997690;28;20026;-96
2022/01/26 23:00:36;;;;;;;50.17;22.55;;;-2.10;99.90;;;;;;4997279;28;20030;-96
2022/01/26 23:03:02;;;;;;;51.47;21.55;;;-2.10;99.90;;;;;;4998151;28;20022;-96
2022/01/26 23:07:54;;;;;;;43.88;20.63;;;-2.10;99.90;;;;;;5014795;28;20022;-96
2022/01/26 23:10:19;;;;;;;42.25;19.73;;;-2.20;99.90;;;;;;4997315;28;20072;-96
2022/01/26 23:12:45;;;;;;;53.63;22.65;;;-2.10;99.90;;;;;;4997180;28;20075;-96
2022/01/26 23:15:11;;;;;;;44.20;20.15;;;-2.10;99.90;;;;;;4997247;28;20072;-96
2022/01/26 23:17:37;;;;;;;49.72;22.58;;;-2.10;99.90;;;;;;4997255;28;20460;-96
2022/01/26 23:20:07;;;;;;;62.17;25.98;;;-2.10;99.90;;;;;;4997011;28;20026;-96
2022/01/26 23:22:37;;;;;;;62.70;27.30;;;-2.10;99.90;;;;;;4997444;28;20038;-96
2022/01/26 23:25:17;;;;;;;64.97;27.10;;;-2.10;99.90;;;;;;4997373;28;20026;-96
2022/01/26 23:33:22;;;;;;;73.32;32.60;;;-2.20;99.90;;;;;;5014792;28;20018;-96
